Time;durP1;ratioP1;P1;durP2;ratioP2;P2;SDS_P1;SDS_P2;PMS_P1;PMS_P2;Temp;Humidity;BMP_temperature;BMP_pressure;BME280_temperature;BME280_humidity;BME280_pressure;Samples;Min_cycle;Max_cycle;Signal;HPM_P1;HPM_P2
2021/10/20 00:00:29;;;;;;;10.70;7.45;;;;;;;14.61;87.55;101042.59;4969945;28;20094;-89
2021/10/20 00:02:57;;;;;;;10.18;7.07;;;;;;;14.59;87.09;101040.03;4964767;28;20406;-89
2021/10/20 00:05:23;;;;;;;13.30;7.43;;;;;;;14.59;87.33;101033.91;4957562;28;20037;-89
2021/10/20 00:07:51;;;;;;;7.50;6.80;;;;;;;14.57;87.18;101028.72;4979640;28;20018;-89
2021/10/20 00:10:19;;;;;;;9.27;7.13;;;;;;;14.57;87.54;101027.81;4980936;28;20094;-89
2021/10/20 00:12:44;;;;;;;11.05;7.60;;;;;;;14.56;87.83;101023.50;4967021;28;20111;-89
2021/10/20 00:15:14;;;;;;;7.80;7.00;;;;;;;14.55;87.74;101009.47;4945277;29;20039;-89
2021/10/20 00:17:39;;;;;;;11.82;6.90;;;;;;;14.53;87.71;101016.59;4974470;28;20134;-89
2021/10/20 00:20:10;;;;;;;10.55;6.95;;;;;;;14.52;87.34;101014.91;4946136;29;20374;-89
2021/10/20 00:22:37;;;;;;;8.00;7.10;;;;;;;14.53;87.65;101021.03;4959007;28;20096;-89
2021/10/20 00:25:05;;;;;;;8.38;6.65;;;;;;;14.49;87.60;101004.53;4963528;28;20035;-89
2021/10/20 00:27:30;;;;;;;7.40;6.70;;;;;;;14.50;87.46;101008.03;4974597;28;20038;-89
2021/10/20 00:29:56;;;;;;;12.65;7.25;;;;;;;14.49;87.38;101003.69;4971526;28;20251;-89
2021/10/20 00:32:22;;;;;;;7.85;7.13;;;;;;;14.48;87.10;100999.34;4938380;28;20073;-89
2021/10/20 00:34:48;;;;;;;9.65;7.50;;;;;;;14.46;87.41;100999.44;4950118;29;20058;-89
2021/10/20 00:37:16;;;;;;;8.02;7.22;;;;;;;14.47;87.39;101003.75;4965474;28;20047;-89
2021/10/20 00:39:42;;;;;;;8.10;7.30;;;;;;;14.45;87.19;100991.63;4978711;28;20042;-89
2021/10/20 00:42:13;;;;;;;8.35;6.97;;;;;;;14.46;86.95;100986.28;4972409;28;20051;-89
2021/10/20 00:44:49;;;;;;;9.25;7.18;;;;;;;14.46;87.29;100977.50;4960277;28;20047;-89
2021/10/20 00:47:16;;;;;;;8.18;7.40;;;;;;;14.44;86.93;100982.84;4953241;28;20033;-89
2021/10/20 00:49:42;;;;;;;9.55;7.93;;;;;;;14.42;87.01;100974.19;4947343;28;20164;-89
2021/10/20 00:52:08;;;;;;;8.60;7.78;;;;;;;14.43;86.52;100985.59;4963154;28;20133;-89
2021/10/20 00:54:34;;;;;;;18.63;7.47;;;;;;;14.42;86.38;100979.44;4963100;28;20068;-89
2021/10/20 00:57:00;;;;;;;10.07;7.53;;;;;;;14.42;86.51;100983.88;4952837;29;20031;-89
2021/10/20 00:59:28;;;;;;;10.18;7.35;;;;;;;14.42;86.27;100968.91;4959895;28;20050;-89
2021/10/20 01:01:53;;;;;;;10.70;7.45;;;;;;;14.43;86.37;100970.63;4969188;28;20022;-89
2021/10/20 01:04:20;;;;;;;11.68;8.10;;;;;;;14.43;86.56;100975.06;4960824;28;20435;-89
2021/10/20 01:06:47;;;;;;;8.00;7.22;;;;;;;14.42;86.76;100962.78;4955949;29;20308;-89
2021/10/20 01:09:13;;;;;;;9.05;7.90;;;;;;;14.40;86.85;100958.44;4974520;28;20294;-89
2021/10/20 01:11:44;;;;;;;10.25;8.00;;;;;;;14.40;86.21;100942.63;4968979;28;20035;-89
2021/10/20 01:14:10;;;;;;;10.88;7.47;;;;;;;14.42;86.74;100952.25;4965688;28;20282;-89
2021/10/20 01:16:36;;;;;;;10.13;8.15;;;;;;;14.40;86.50;100954.97;4964902;28;20101;-89
2021/10/20 01:19:03;;;;;;;10.90;8.43;;;;;;;14.40;86.30;100950.53;4977878;28;20070;-88
2021/10/20 01:21:28;;;;;;;13.90;7.85;;;;;;;14.42;85.93;100949.63;4948889;28;20338;-89
2021/10/20 01:23:54;;;;;;;13.07;7.65;;;;;;;14.42;85.18;100947.84;4977084;28;20048;-89
2021/10/20 01:26:21;;;;;;;9.68;8.57;;;;;;;14.45;85.34;100949.47;4959319;28;20058;-90
2021/10/20 01:28:47;;;;;;;10.30;7.68;;;;;;;14.45;85.36;100952.09;4950380;28;20407;-89
2021/10/20 01:31:17;;;;;;;14.00;8.40;;;;;;;14.44;85.21;100939.84;4977214;28;20019;-89
2021/10/20 01:33:44;;;;;;;9.65;8.13;;;;;;;14.45;85.43;100938.94;4967778;28;20031;-89
2021/10/20 01:36:12;;;;;;;10.45;8.35;;;;;;;14.44;85.38;100939.84;4971252;28;20050;-89
2021/10/20 01:38:38;;;;;;;9.75;8.65;;;;;;;14.42;85.52;100934.66;4978195;28;20035;-89
2021/10/20 01:41:05;;;;;;;10.65;8.50;;;;;;;14.42;85.46;100929.38;4962102;28;20047;-89
2021/10/20 01:43:46;;;;;;;9.85;8.32;;;;;;;14.40;85.63;100929.47;4977388;28;20023;-89
2021/10/20 01:46:17;;;;;;;8.93;7.88;;;;;;;14.39;85.38;100927.78;4962865;28;20062;-89
2021/10/20 01:48:43;;;;;;;10.98;8.73;;;;;;;14.39;84.52;100932.22;4944420;28;20218;-89
2021/10/20 01:51:13;;;;;;;10.80;8.38;;;;;;;14.39;85.04;100930.41;4928484;29;20310;-89
2021/10/20 01:53:40;;;;;;;14.38;8.70;;;;;;;14.38;85.16;100926.06;4959556;28;20098;-89
2021/10/20 01:56:06;;;;;;;12.35;8.70;;;;;;;14.38;84.89;100906.78;4944500;29;20051;-89
2021/10/20 01:58:33;;;;;;;12.90;8.50;;;;;;;14.37;85.09;100907.72;4958208;28;20054;-89
2021/10/20 02:01:01;;;;;;;12.40;9.10;;;;;;;14.37;85.08;100905.06;4959646;28;20330;-89
2021/10/20 02:03:28;;;;;;;9.50;8.40;;;;;;;14.36;85.35;100895.50;4944319;29;20039;-89
2021/10/20 02:05:56;;;;;;;9.95;8.48;;;;;;;14.35;84.71;100889.38;4943741;28;20386;-89
2021/10/20 02:08:22;;;;;;;13.80;8.97;;;;;;;14.36;85.02;100891.06;4971741;28;20077;-89
2021/10/20 02:10:48;;;;;;;10.10;8.35;;;;;;;14.35;85.12;100878.84;4948575;28;20046;-89
2021/10/20 02:13:16;;;;;;;12.82;8.32;;;;;;;14.34;85.37;100865.75;4950660;29;20094;-89
2021/10/20 02:15:47;;;;;;;10.52;8.18;;;;;;;14.32;85.38;100873.72;4968986;28;20255;-89
2021/10/20 02:18:19;;;;;;;15.07;9.90;;;;;;;14.31;85.08;100877.28;4968407;28;20059;-89
2021/10/20 02:20:47;;;;;;;12.52;8.57;;;;;;;14.29;84.87;100873.88;4973548;28;20108;-89
2021/10/20 02:23:15;;;;;;;11.50;8.15;;;;;;;14.29;84.81;100873.88;4959307;28;20077;-89
2021/10/20 02:25:41;;;;;;;14.82;8.48;;;;;;;14.28;84.98;100871.34;4961526;28;20057;-89
2021/10/20 02:28:07;;;;;;;9.63;8.55;;;;;;;14.28;85.02;100860.81;4946141;28;20349;-89
2021/10/20 02:30:34;;;;;;;15.10;9.32;;;;;;;14.26;85.34;100854.78;4959632;28;20074;-89
2021/10/20 02:33:02;;;;;;;11.98;8.73;;;;;;;14.24;85.25;100854.84;4979662;28;20062;-88
2021/10/20 02:35:28;;;;;;;17.42;9.32;;;;;;;14.25;84.98;100855.72;4940948;28;20031;-89
2021/10/20 02:37:54;;;;;;;13.95;9.55;;;;;;;14.25;84.79;100847.81;4963078;28;20352;-89
2021/10/20 02:40:23;;;;;;;12.10;9.18;;;;;;;14.24;84.39;100849.59;4942291;29;20039;-90
2021/10/20 02:42:49;;;;;;;14.80;9.32;;;;;;;14.23;85.09;100840.00;4963379;28;20130;-89
2021/10/20 02:45:15;;;;;;;12.77;9.05;;;;;;;14.23;85.43;100839.16;4961756;28;20035;-89
2021/10/20 02:47:41;;;;;;;12.13;9.10;;;;;;;14.22;84.77;100822.50;4959522;28;20050;-89
2021/10/20 02:50:06;;;;;;;9.98;8.70;;;;;;;14.23;85.15;100821.56;4952566;28;20343;-89
2021/10/20 02:52:32;;;;;;;14.00;9.60;;;;;;;14.20;85.15;100814.66;4959516;28;20034;-89
2021/10/20 02:54:57;;;;;;;14.98;9.57;;;;;;;14.20;84.46;100819.94;4943535;29;20049;-91
2021/10/20 02:57:23;;;;;;;12.00;9.65;;;;;;;14.21;85.18;100811.13;4959474;28;20040;-91
2021/10/20 02:59:48;;;;;;;16.92;8.95;;;;;;;14.21;84.74;100808.47;4959731;28;20356;-91
2021/10/20 03:02:14;;;;;;;13.18;9.45;;;;;;;14.22;84.62;100798.78;4961629;28;20242;-91
2021/10/20 03:04:40;;;;;;;12.27;8.82;;;;;;;14.20;84.81;100796.22;4960143;28;20030;-91
2021/10/20 03:07:05;;;;;;;11.52;8.90;;;;;;;14.24;84.59;100794.28;4961667;28;20022;-91
2021/10/20 03:09:30;;;;;;;14.27;9.05;;;;;;;14.23;84.57;100795.22;4951336;29;20035;-91
2021/10/20 03:11:56;;;;;;;12.88;9.18;;;;;;;14.25;84.36;100795.97;4953254;28;20181;-91
2021/10/20 03:14:21;;;;;;;13.20;9.10;;;;;;;14.26;84.22;100795.06;4958401;28;20035;-91
2021/10/20 03:16:46;;;;;;;16.80;10.32;;;;;;;14.25;84.40;100781.97;4959981;28;20234;-91
2021/10/20 03:19:12;;;;;;;12.82;9.27;;;;;;;14.26;84.55;100788.91;4957454;28;20034;-92
2021/10/20 03:21:37;;;;;;;15.52;10.00;;;;;;;14.26;84.60;100796.81;4957778;28;20655;-91
2021/10/20 03:24:03;;;;;;;13.02;9.50;;;;;;;14.26;83.81;100795.06;4945793;28;20033;-91
2021/10/20 03:26:28;;;;;;;15.05;10.25;;;;;;;14.28;83.85;100787.03;4957156;29;20035;-91
2021/10/20 03:28:54;;;;;;;16.13;10.10;;;;;;;14.27;84.06;100782.72;4952705;28;20031;-91
2021/10/20 03:31:19;;;;;;;17.45;10.70;;;;;;;14.28;84.17;100792.31;4957563;28;20050;-91
2021/10/20 03:33:45;;;;;;;16.45;10.00;;;;;;;14.27;83.83;100772.19;4950991;28;20030;-91
2021/10/20 03:36:10;;;;;;;14.48;10.23;;;;;;;14.29;84.12;100776.44;4968181;28;20035;-91
2021/10/20 03:38:36;;;;;;;15.05;9.57;;;;;;;14.28;84.09;100776.50;4948675;28;20039;-91
2021/10/20 03:41:04;;;;;;;12.55;10.18;;;;;;;14.28;83.84;100777.38;4981374;28;20309;-91
2021/10/20 03:43:29;;;;;;;12.30;9.98;;;;;;;14.28;83.84;100774.75;4962222;28;20376;-91
2021/10/20 03:45:55;;;;;;;14.63;10.20;;;;;;;14.28;84.10;100771.25;4946039;29;20067;-91
2021/10/20 03:48:20;;;;;;;18.38;10.70;;;;;;;14.28;84.13;100765.97;4945652;28;20377;-91
2021/10/20 03:50:46;;;;;;;15.30;10.40;;;;;;;14.28;84.23;100760.72;4963105;28;20326;-91
2021/10/20 03:53:11;;;;;;;11.75;10.50;;;;;;;14.28;84.35;100744.91;4947945;28;20226;-91
2021/10/20 03:55:37;;;;;;;12.77;9.98;;;;;;;14.27;84.45;100759.88;4947895;28;20066;-91
2021/10/20 03:58:03;;;;;;;12.40;10.57;;;;;;;14.28;84.49;100758.06;4950067;28;20049;-91
2021/10/20 04:00:29;;;;;;;13.68;9.55;;;;;;;14.29;84.42;100751.88;4961447;28;20080;-91
2021/10/20 04:02:54;;;;;;;18.65;10.43;;;;;;;14.30;84.68;100754.44;4946920;28;20106;-92
2021/10/20 04:05:20;;;;;;;11.90;9.50;;;;;;;14.31;84.18;100748.22;4975707;28;20046;-91
2021/10/20 04:07:47;;;;;;;14.52;10.70;;;;;;;14.32;84.35;100738.53;4962068;28;20031;-91
2021/10/20 04:10:14;;;;;;;14.57;9.90;;;;;;;14.32;84.19;100735.91;4933404;29;20031;-91
2021/10/20 04:12:40;;;;;;;13.35;9.73;;;;;;;14.32;84.77;100731.47;4948546;28;20376;-91
2021/10/20 04:15:06;;;;;;;14.20;10.30;;;;;;;14.32;84.32;100728.00;4960818;29;20019;-91
2021/10/20 04:17:31;;;;;;;17.10;10.23;;;;;;;14.33;84.64;100733.16;4945031;29;20062;-91
2021/10/20 04:19:57;;;;;;;13.50;9.88;;;;;;;14.34;84.44;100711.16;4996518;28;20039;-91
2021/10/20 04:22:22;;;;;;;13.02;9.30;;;;;;;14.37;84.65;100716.25;4961668;28;20038;-91
2021/10/20 04:24:48;;;;;;;13.35;9.05;;;;;;;14.36;84.23;100704.00;4972523;28;20042;-92
2021/10/20 04:27:13;;;;;;;16.35;9.90;;;;;;;14.37;84.24;100713.63;4962680;28;20109;-91
2021/10/20 04:29:44;;;;;;;18.05;10.70;;;;;;;14.39;84.47;100710.91;4963605;28;20034;-91
2021/10/20 04:32:10;;;;;;;16.17;9.82;;;;;;;14.40;84.50;100704.69;4977825;28;20043;-91
2021/10/20 04:34:35;;;;;;;12.27;9.85;;;;;;;14.39;84.58;100714.38;4955821;29;20276;-91
2021/10/20 04:37:01;;;;;;;12.30;9.98;;;;;;;14.40;84.88;100716.06;4976868;28;20030;-91
2021/10/20 04:39:26;;;;;;;16.40;9.65;;;;;;;14.40;84.83;100721.31;4963055;28;20261;-91
2021/10/20 04:41:51;;;;;;;13.65;10.18;;;;;;;14.39;84.67;100706.47;4979931;28;20054;-91
2021/10/20 04:44:17;;;;;;;14.02;9.57;;;;;;;14.44;84.09;100707.97;4979042;28;20037;-91
2021/10/20 04:46:42;;;;;;;12.82;9.20;;;;;;;14.46;84.38;100708.75;4967561;28;20031;-91
2021/10/20 04:49:08;;;;;;;17.75;10.18;;;;;;;14.47;84.34;100715.72;4947934;29;20093;-91
2021/10/20 04:51:33;;;;;;;14.20;10.48;;;;;;;14.46;84.51;100719.28;4977822;28;20042;-91
2021/10/20 04:53:59;;;;;;;12.48;9.30;;;;;;;14.50;84.54;100720.81;4963717;28;20261;-91
2021/10/20 04:56:24;;;;;;;19.95;10.02;;;;;;;14.50;84.45;100708.47;4961095;28;20054;-91
2021/10/20 04:58:50;;;;;;;11.70;9.65;;;;;;;14.50;84.63;100705.00;4945053;28;20031;-91
2021/10/20 05:01:15;;;;;;;16.10;9.88;;;;;;;14.50;84.24;100707.63;4961655;28;20137;-91
2021/10/20 05:03:41;;;;;;;13.18;9.77;;;;;;;14.54;84.49;100698.59;4955858;28;20030;-91
2021/10/20 05:06:06;;;;;;;15.95;9.27;;;;;;;14.55;83.95;100690.63;4962438;28;20315;-92
2021/10/20 05:08:31;;;;;;;14.60;8.70;;;;;;;14.58;83.96;100700.97;4959261;28;20039;-91
2021/10/20 05:10:58;;;;;;;15.20;9.88;;;;;;;14.58;83.97;100689.59;4976990;28;20073;-91
2021/10/20 05:13:23;;;;;;;11.20;9.48;;;;;;;14.60;83.68;100687.72;4946303;28;20118;-90
2021/10/20 05:15:49;;;;;;;12.93;9.95;;;;;;;14.61;84.08;100668.34;4978259;28;20109;-91
2021/10/20 05:18:14;;;;;;;16.25;10.15;;;;;;;14.62;84.13;100662.13;4960309;28;20074;-91
2021/10/20 05:20:40;;;;;;;16.60;8.77;;;;;;;14.59;83.82;100652.63;4961965;28;20038;-91
2021/10/20 05:23:05;;;;;;;10.73;9.18;;;;;;;14.61;84.21;100660.44;4959351;28;20018;-92
2021/10/20 05:25:31;;;;;;;14.95;9.52;;;;;;;14.62;84.20;100658.63;4956879;29;20035;-91
2021/10/20 05:27:56;;;;;;;13.32;8.30;;;;;;;14.64;84.16;100660.22;4958106;29;20035;-91
2021/10/20 05:30:21;;;;;;;12.52;9.05;;;;;;;14.64;83.71;100640.94;4972372;28;20090;-91
2021/10/20 05:32:47;;;;;;;14.52;9.27;;;;;;;14.67;84.15;100644.25;4963903;28;20027;-91
2021/10/20 05:35:18;;;;;;;19.92;9.27;;;;;;;14.67;84.30;100643.41;4962508;28;20297;-91
2021/10/20 05:37:45;;;;;;;11.27;9.18;;;;;;;14.66;84.23;100636.41;4964079;28;20061;-91
2021/10/20 05:40:10;;;;;;;12.52;9.38;;;;;;;14.66;84.40;100637.28;4962574;28;20022;-91
2021/10/20 05:42:36;;;;;;;12.27;9.13;;;;;;;14.65;84.73;100630.31;4962660;28;20303;-91
2021/10/20 05:45:01;;;;;;;15.95;9.40;;;;;;;14.66;84.60;100615.34;4965501;28;20031;-91
2021/10/20 05:47:27;;;;;;;14.43;9.20;;;;;;;14.66;84.38;100608.31;4962273;28;20113;-91
2021/10/20 05:49:52;;;;;;;18.38;10.02;;;;;;;14.65;85.09;100582.03;4963292;28;20027;-91
2021/10/20 05:52:18;;;;;;;20.00;9.45;;;;;;;14.66;85.28;100581.94;4961470;28;20122;-91
2021/10/20 05:54:44;;;;;;;12.55;9.23;;;;;;;14.66;85.27;100591.63;4956250;28;20294;-91
2021/10/20 05:57:09;;;;;;;13.98;9.85;;;;;;;14.68;85.34;100579.19;4976074;28;20030;-91
2021/10/20 05:59:34;;;;;;;16.27;10.40;;;;;;;14.67;85.21;100588.06;4962785;28;20316;-91
2021/10/20 06:02:00;;;;;;;12.63;9.10;;;;;;;14.67;85.72;100593.31;4943534;29;20043;-91
2021/10/20 06:04:25;;;;;;;16.02;8.70;;;;;;;14.65;85.57;100580.22;4943399;29;20230;-92
2021/10/20 06:06:51;;;;;;;14.45;8.45;;;;;;;14.61;85.51;100586.66;4955985;28;20364;-91
2021/10/20 06:09:18;;;;;;;11.13;8.30;;;;;;;14.60;85.11;100574.41;4962774;28;20410;-92
2021/10/20 06:11:43;;;;;;;11.20;7.90;;;;;;;14.60;85.21;100574.41;4959398;28;20041;-92
2021/10/20 06:14:09;;;;;;;10.50;8.15;;;;;;;14.56;85.27;100565.81;4962454;28;20034;-92
2021/10/20 06:16:38;;;;;;;10.63;8.05;;;;;;;14.55;85.68;100573.78;4962210;28;20030;-92
2021/10/20 06:19:04;;;;;;;10.18;7.90;;;;;;;14.55;85.54;100569.41;4961140;28;20039;-91
2021/10/20 06:21:30;;;;;;;12.13;8.05;;;;;;;14.51;85.74;100583.69;4945719;28;20025;-91
2021/10/20 06:23:55;;;;;;;10.82;7.95;;;;;;;14.52;85.47;100580.13;4942588;28;20022;-91
2021/10/20 06:26:22;;;;;;;10.57;6.80;;;;;;;14.51;85.40;100582.84;4945111;28;20039;-91
2021/10/20 06:28:48;;;;;;;13.23;7.20;;;;;;;14.50;85.44;100560.91;4959844;28;20022;-91
2021/10/20 06:31:13;;;;;;;10.23;7.40;;;;;;;14.48;86.03;100578.63;4956476;28;20223;-91
2021/10/20 06:33:40;;;;;;;10.82;8.00;;;;;;;14.47;86.33;100603.25;4956230;28;20023;-91
2021/10/20 06:36:07;;;;;;;9.65;8.20;;;;;;;14.46;87.03;100601.59;4956618;28;20027;-91
2021/10/20 06:38:33;;;;;;;12.20;8.38;;;;;;;14.40;87.25;100594.88;4976088;28;20042;-90
2021/10/20 06:40:58;;;;;;;11.60;7.82;;;;;;;14.38;88.02;100583.56;4958370;28;20354;-91
2021/10/20 06:43:24;;;;;;;16.52;9.45;;;;;;;14.34;88.48;100570.69;4976965;28;20350;-91
2021/10/20 06:45:49;;;;;;;10.38;9.35;;;;;;;14.29;88.63;100565.69;4957131;28;20041;-91
2021/10/20 06:48:15;;;;;;;19.63;9.07;;;;;;;14.25;89.81;100561.56;4955106;28;20053;-90
2021/10/20 06:50:40;;;;;;;13.10;9.93;;;;;;;14.21;90.58;100534.56;4956802;28;20211;-91
2021/10/20 06:53:06;;;;;;;14.10;9.10;;;;;;;14.17;90.86;100525.16;4955945;28;20045;-90
2021/10/20 06:55:32;;;;;;;14.15;9.40;;;;;;;14.12;91.19;100514.06;4976849;28;20039;-90
2021/10/20 06:57:57;;;;;;;17.55;10.07;;;;;;;14.06;91.48;100492.50;4955462;29;20122;-91
2021/10/20 07:00:23;;;;;;;12.05;9.68;;;;;;;14.02;91.98;100505.00;4960551;28;20027;-91
2021/10/20 07:02:48;;;;;;;16.77;10.00;;;;;;;13.99;92.58;100495.53;4963019;28;20034;-91
2021/10/20 07:05:14;;;;;;;13.07;10.52;;;;;;;13.96;92.82;100477.28;4970607;28;20034;-90
2021/10/20 07:07:39;;;;;;;20.42;10.20;;;;;;;13.93;92.79;100445.84;4975382;28;20057;-91
2021/10/20 07:10:05;;;;;;;21.85;11.15;;;;;;;13.92;93.44;100441.56;4960976;28;20204;-91
2021/10/20 07:12:32;;;;;;;15.35;10.27;;;;;;;13.90;93.34;100434.66;4975527;28;20337;-91
2021/10/20 07:15:00;;;;;;;17.33;10.52;;;;;;;13.89;93.60;100409.31;4973608;28;20042;-91
2021/10/20 07:17:26;;;;;;;16.05;10.15;;;;;;;13.87;93.65;100400.66;4957340;28;20039;-91
2021/10/20 07:19:51;;;;;;;13.80;10.75;;;;;;;13.85;93.82;100403.38;4975380;28;20234;-90
2021/10/20 07:22:17;;;;;;;13.70;10.15;;;;;;;13.85;94.13;100399.91;4961861;28;20035;-91
2021/10/20 07:24:42;;;;;;;13.55;10.82;;;;;;;13.84;94.24;100414.84;4954853;28;20117;-91
2021/10/20 07:27:08;;;;;;;18.38;11.32;;;;;;;13.83;94.17;100411.38;4969648;28;20061;-91
2021/10/20 07:29:33;;;;;;;15.70;10.60;;;;;;;13.82;94.57;100416.72;4979055;28;20043;-91
2021/10/20 07:31:59;;;;;;;14.40;10.13;;;;;;;13.78;94.55;100426.59;4961928;28;20043;-91
2021/10/20 07:34:24;;;;;;;14.55;10.82;;;;;;;13.78;94.97;100421.31;4958313;28;20027;-90
2021/10/20 07:36:50;;;;;;;20.15;10.63;;;;;;;13.81;94.82;100420.31;4943645;28;20042;-90
2021/10/20 07:39:16;;;;;;;14.82;10.82;;;;;;;13.78;94.75;100416.06;4961254;28;20038;-91
2021/10/20 07:41:41;;;;;;;13.77;10.35;;;;;;;13.78;94.59;100410.78;4944540;28;20078;-90
2021/10/20 07:44:07;;;;;;;22.17;11.73;;;;;;;13.80;94.60;100419.44;4959478;28;20069;-90
2021/10/20 07:46:33;;;;;;;15.07;10.50;;;;;;;13.80;94.88;100408.06;4959895;28;20041;-90
2021/10/20 07:48:58;;;;;;;10.57;9.52;;;;;;;13.80;94.85;100419.44;4979135;28;20259;-90
2021/10/20 07:51:23;;;;;;;15.18;10.05;;;;;;;13.81;94.74;100434.31;4976860;28;20054;-90
2021/10/20 07:53:49;;;;;;;19.15;10.45;;;;;;;13.83;94.91;100429.78;4958569;28;20031;-90
2021/10/20 07:56:14;;;;;;;15.10;9.98;;;;;;;13.82;94.83;100430.75;4962225;28;20038;-91
2021/10/20 07:58:40;;;;;;;18.05;9.85;;;;;;;13.85;95.15;100416.53;4961428;28;20038;-90
2021/10/20 08:01:05;;;;;;;12.93;10.05;;;;;;;13.88;95.04;100424.25;4977092;28;20047;-89
2021/10/20 08:03:31;;;;;;;12.88;9.82;;;;;;;13.91;95.08;100429.31;4977681;28;20034;-90
2021/10/20 08:05:56;;;;;;;11.68;10.48;;;;;;;13.97;94.67;100433.34;4960702;28;20042;-89
2021/10/20 08:08:39;;;;;;;14.27;9.43;;;;;;;14.04;95.04;100423.31;4959942;28;20034;-91
2021/10/20 08:11:13;;;;;;;13.13;10.52;;;;;;;14.06;94.91;100416.16;4971759;28;20026;-90
2021/10/20 08:13:39;;;;;;;17.42;9.82;;;;;;;14.12;94.77;100421.91;4938831;28;20041;-90
2021/10/20 08:16:05;;;;;;;13.25;10.63;;;;;;;14.16;94.64;100433.91;4962054;28;20034;-90
2021/10/20 08:26:15;;;;;;;;;;;;;;;;;;;;;
2021/10/20 08:29:28;;;;;;;;;;;;;;;;;;;;;
2021/10/20 08:32:27;;;;;;;18.65;10.60;;;;;;;14.20;94.20;100422.25;4944909;29;20141;-90
2021/10/20 08:35:05;;;;;;;13.63;9.80;;;;;;;14.21;94.04;100423.94;4937082;28;20058;-91
2021/10/20 08:38:19;;;;;;;16.05;10.85;;;;;;;14.24;93.96;100417.63;4938620;28;20080;-91
2021/10/20 08:40:47;;;;;;;14.20;10.38;;;;;;;14.29;94.14;100410.28;4956877;28;20111;-90
2021/10/20 08:43:22;;;;;;;15.85;11.07;;;;;;;14.36;93.96;100405.50;4961574;28;20065;-91
2021/10/20 08:48:47;;;;;;;16.27;10.88;;;;;;;14.43;93.43;100400.69;5040562;23;20347;-91
2021/10/20 08:51:18;;;;;;;14.93;10.52;;;;;;;14.47;93.46;100407.44;4977464;28;20048;-91
2021/10/20 08:53:45;;;;;;;16.33;10.70;;;;;;;14.52;93.71;100418.53;4975463;28;20054;-91
2021/10/20 08:56:14;;;;;;;15.75;10.80;;;;;;;14.53;93.65;100428.13;4960203;28;20058;-91
2021/10/20 08:58:41;;;;;;;15.98;10.57;;;;;;;14.54;93.34;100408.75;4957918;28;20054;-91
2021/10/20 09:01:08;;;;;;;15.00;10.63;;;;;;;14.52;93.51;100426.44;4975172;28;20235;-90
2021/10/20 09:03:35;;;;;;;18.40;11.38;;;;;;;14.54;93.48;100401.69;4958909;28;20306;-91
2021/10/20 09:06:00;;;;;;;17.75;11.20;;;;;;;14.54;93.28;100395.56;4944911;28;20035;-91
2021/10/20 09:08:27;;;;;;;12.70;10.63;;;;;;;14.55;93.40;100387.56;4960466;28;20039;-91
2021/10/20 09:10:56;;;;;;;11.57;10.20;;;;;;;14.58;93.31;100370.75;4935384;28;20032;-90
2021/10/20 09:13:25;;;;;;;18.20;10.65;;;;;;;14.61;93.25;100381.09;4975962;28;20038;-90
2021/10/20 09:15:51;;;;;;;17.77;12.02;;;;;;;14.62;93.20;100377.50;4960938;28;20031;-91
2021/10/20 09:18:17;;;;;;;11.20;10.02;;;;;;;14.63;92.76;100384.47;4951279;28;20039;-91
2021/10/20 09:20:45;;;;;;;13.63;10.02;;;;;;;14.62;92.99;100384.56;4967103;28;20046;-91
2021/10/20 09:23:20;;;;;;;13.27;10.02;;;;;;;14.63;92.83;100375.72;4951391;28;20226;-91
2021/10/20 09:26:01;;;;;;;13.82;10.07;;;;;;;14.62;92.56;100371.38;4963963;28;20038;-90
2021/10/20 09:28:34;;;;;;;9.98;9.05;;;;;;;14.62;92.34;100382.75;4968489;28;20053;-91
2021/10/20 09:31:02;;;;;;;12.35;9.02;;;;;;;14.63;92.43;100384.47;4957670;28;20098;-91
2021/10/20 09:33:29;;;;;;;;;;;;;;;14.66;92.52;100363.19;4975698;28;20041;-91
2021/10/20 09:36:09;;;;;;;13.27;9.82;;;;;;;14.67;92.55;100362.22;4961238;28;20201;-91
2021/10/20 09:38:46;;;;;;;12.68;9.77;;;;;;;14.68;92.43;100377.13;4950258;28;20039;-90
2021/10/20 09:41:17;;;;;;;15.57;9.65;;;;;;;14.68;92.35;100363.94;4951444;29;20039;-91
2021/10/20 09:43:53;;;;;;;11.02;9.20;;;;;;;14.67;92.37;100370.13;4946001;29;20300;-91
2021/10/20 09:46:35;;;;;;;11.30;8.90;;;;;;;14.67;92.48;100382.47;4924411;29;20042;-92
2021/10/20 09:49:03;;;;;;;13.77;9.65;;;;;;;14.65;92.53;100377.31;4936703;29;20051;-91
2021/10/20 09:51:29;;;;;;;11.50;8.90;;;;;;;14.68;92.14;100369.22;4930651;29;20032;-91
2021/10/20 09:53:54;;;;;;;9.52;8.63;;;;;;;14.74;92.16;100386.41;4924327;29;20393;-91
2021/10/20 09:56:21;;;;;;;11.88;8.73;;;;;;;14.76;92.19;100366.06;4935858;29;20040;-91
2021/10/20 09:58:53;;;;;;;13.15;8.75;;;;;;;14.78;92.13;100382.63;4937234;29;20118;-90
2021/10/20 10:01:25;;;;;;;11.50;8.65;;;;;;;14.79;91.76;100365.88;4930538;29;20063;-92
2021/10/20 10:04:04;;;;;;;10.43;8.63;;;;;;;14.80;91.64;100375.44;4941143;29;20031;-91
2021/10/20 10:06:30;;;;;;;;;;;;;;;14.86;91.24;100371.56;4953194;28;20027;-91
2021/10/20 10:08:57;;;;;;;11.23;9.13;;;;;;;14.89;90.87;100369.56;4938911;29;19934;-91
2021/10/20 10:11:25;;;;;;;12.60;8.32;;;;;;;14.95;91.16;100374.47;4951820;28;20115;-91
2021/10/20 10:13:51;;;;;;;9.77;8.48;;;;;;;14.96;91.30;100377.94;4935982;29;20055;-91
2021/10/20 10:16:22;;;;;;;11.57;7.93;;;;;;;14.98;91.01;100382.13;4914215;29;20054;-91
2021/10/20 10:18:48;;;;;;;13.80;7.95;;;;;;;15.01;90.94;100383.75;4923907;29;20349;-91
2021/10/20 10:21:40;;;;;;;12.40;7.95;;;;;;;15.03;90.93;100373.94;4934389;29;20035;-91
2021/10/20 10:24:11;;;;;;;9.20;7.00;;;;;;;15.03;90.54;100387.13;4948220;29;20280;-91
2021/10/20 10:26:58;;;;;;;14.38;8.30;;;;;;;15.05;90.63;100373.84;4916861;29;20032;-91
2021/10/20 10:29:23;;;;;;;9.40;7.32;;;;;;;15.07;90.59;100380.69;4934315;29;20031;-90
2021/10/20 10:31:51;;;;;;;9.05;8.15;;;;;;;15.07;90.36;100379.84;4937129;29;20028;-91
2021/10/20 10:34:48;;;;;;;8.23;7.35;;;;;;;15.10;90.68;100392.84;4951150;29;20044;-91
2021/10/20 10:37:59;;;;;;;12.98;7.55;;;;;;;15.13;90.43;100380.31;4950596;28;20313;-92
2021/10/20 10:40:32;;;;;;;10.48;7.43;;;;;;;15.13;90.21;100369.75;4952795;29;20047;-91
2021/10/20 10:43:25;;;;;;;12.90;7.47;;;;;;;15.14;90.40;100371.41;4962009;28;20035;-92
2021/10/20 10:52:19;;;;;;;10.48;7.60;;;;;;;15.14;90.15;100366.16;903356;23;20964;-91
2021/10/20 10:55:14;;;;;;;9.75;6.78;;;;;;;15.13;90.16;100367.13;4973349;28;20063;-92
2021/10/20 10:58:01;;;;;;;11.73;7.18;;;;;;;15.13;89.56;100361.84;4970271;28;20047;-92
2021/10/20 11:00:33;;;;;;;11.75;7.25;;;;;;;15.15;89.90;100359.94;4966158;28;20329;-92
2021/10/20 11:03:35;;;;;;;11.93;7.47;;;;;;;15.14;89.71;100360.88;4956480;28;20057;-92
2021/10/20 11:06:28;;;;;;;9.98;6.63;;;;;;;15.17;90.07;100370.34;4974321;23;20297;-92
2021/10/20 11:09:31;;;;;;;12.27;7.13;;;;;;;15.14;89.94;100368.78;4964171;28;20274;-92
2021/10/20 11:12:05;;;;;;;7.78;6.30;;;;;;;15.18;89.50;100364.16;4972328;28;20191;-92
2021/10/20 11:14:34;;;;;;;9.10;6.75;;;;;;;15.20;89.48;100362.25;4977290;28;20349;-93
2021/10/20 11:17:12;;;;;;;14.07;6.97;;;;;;;15.21;89.49;100339.34;4976735;28;20109;-92
2021/10/20 11:19:50;;;;;;;9.70;6.50;;;;;;;15.21;89.50;100348.13;4976938;28;20066;-92
2021/10/20 12:12:45;;;;;;;7.32;4.20;;;;;;;15.52;87.24;100325.75;3176616;23;20951;-91
2021/10/20 12:15:27;;;;;;;12.52;4.40;;;;;;;15.52;87.27;100333.66;4923654;29;20064;-93
2021/10/20 14:51:47;;;;;;;7.68;3.70;;;;;;;15.34;87.80;100108.88;4932989;29;20083;-93
2021/10/20 14:54:17;;;;;;;8.82;3.78;;;;;;;15.35;87.43;100107.94;4906798;29;20047;-93
2021/10/20 14:57:17;;;;;;;8.15;4.03;;;;;;;15.38;87.43;100113.97;4926984;29;20043;-93
2021/10/20 14:59:53;;;;;;;9.40;3.80;;;;;;;15.36;87.78;100101.69;4925022;23;20124;-93
2021/10/20 16:05:03;;;;;;;12.63;1.90;;;;;;;13.91;90.49;100071.31;4939760;29;20074;-92
2021/10/20 16:07:29;;;;;;;7.47;2.33;;;;;;;13.81;90.17;100084.25;4890204;29;20103;-92
2021/10/20 16:09:54;;;;;;;12.45;2.17;;;;;;;13.71;90.45;100095.50;4888470;29;20126;-92